Time;durP1;ratioP1;P1;durP2;ratioP2;P2;SDS_P1;SDS_P2;PMS_P1;PMS_P2;Temp;Humidity;BMP_temperature;BMP_pressure;BME280_temperature;BME280_humidity;BME280_pressure;Samples;Min_cycle;Max_cycle;Signal;HPM_P1;HPM_P2
2023/09/09 00:00:00;;;;;;;11.60;10.70;;;;;;;13.87;100.00;97160.13;4939266;28;20203;-64
2023/09/09 00:02:29;;;;;;;11.90;10.80;;;;;;;13.88;100.00;97161.78;4941038;28;20211;-61
2023/09/09 00:04:56;;;;;;;10.87;9.87;;;;;;;13.85;100.00;97163.03;4913510;28;20294;-64
2023/09/09 00:07:24;;;;;;;11.43;10.53;;;;;;;13.82;100.00;97162.59;4937958;28;20200;-64
2023/09/09 00:09:52;;;;;;;11.97;11.07;;;;;;;13.85;100.00;97164.84;4817861;28;20327;-63
2023/09/09 00:12:19;;;;;;;11.30;10.40;;;;;;;13.79;100.00;97160.34;4936724;28;20223;-63
2023/09/09 00:14:47;;;;;;;13.83;12.43;;;;;;;13.71;100.00;97158.69;4935030;28;20258;-62
2023/09/09 00:17:14;;;;;;;11.50;10.60;;;;;;;13.69;100.00;97156.25;4939030;28;20278;-63
2023/09/09 00:19:43;;;;;;;12.23;11.10;;;;;;;13.66;100.00;97155.84;4892353;28;20564;-60
2023/09/09 00:22:11;;;;;;;11.50;10.60;;;;;;;13.62;100.00;97146.63;4935283;28;20203;-61
2023/09/09 00:24:39;;;;;;;12.47;11.57;;;;;;;13.57;100.00;97153.38;4936433;28;20905;-59
2023/09/09 00:27:06;;;;;;;11.53;10.63;;;;;;;13.56;100.00;97149.09;4937679;28;20223;-63
2023/09/09 00:29:34;;;;;;;11.40;10.50;;;;;;;13.51;100.00;97146.22;4933281;28;20310;-60
2023/09/09 00:32:01;;;;;;;12.23;11.23;;;;;;;13.49;100.00;97147.44;4936707;28;20345;-63
2023/09/09 00:34:29;;;;;;;12.27;11.17;;;;;;;13.49;100.00;97142.94;4936789;28;20223;-66
2023/09/09 00:36:58;;;;;;;12.23;11.13;;;;;;;13.44;100.00;97151.53;4939434;28;20325;-62
2023/09/09 00:39:26;;;;;;;11.57;10.57;;;;;;;13.46;100.00;97140.69;4933547;28;20207;-64
2023/09/09 00:41:53;;;;;;;11.57;10.67;;;;;;;13.37;100.00;97149.84;4939007;28;20750;-64
2023/09/09 00:44:21;;;;;;;12.80;11.80;;;;;;;13.36;100.00;97145.53;4815740;28;20819;-59
2023/09/09 00:46:49;;;;;;;12.43;11.53;;;;;;;13.40;100.00;97146.78;4939005;28;20295;-61
2023/09/09 00:49:16;;;;;;;12.83;11.73;;;;;;;13.35;100.00;97143.91;4885475;28;21556;-67
2023/09/09 00:51:45;;;;;;;12.03;10.93;;;;;;;13.36;100.00;97143.72;4940057;28;20226;-62
2023/09/09 00:54:13;;;;;;;11.40;10.40;;;;;;;13.36;100.00;97142.88;4934216;28;20686;-63
2023/09/09 00:56:42;;;;;;;12.30;11.30;;;;;;;13.31;100.00;97149.63;4938804;28;20686;-59
2023/09/09 00:59:12;;;;;;;11.33;10.43;;;;;;;13.25;100.00;97145.13;4934785;28;20307;-64
2023/09/09 01:01:39;;;;;;;12.87;11.70;;;;;;;13.23;100.00;97141.84;4939464;28;20210;-61
2023/09/09 01:04:07;;;;;;;11.00;10.00;;;;;;;13.20;100.00;97147.56;4932702;28;20239;-65
2023/09/09 01:06:36;;;;;;;12.90;11.80;;;;;;;13.17;100.00;97147.97;4937041;28;20200;-63
2023/09/09 01:09:08;;;;;;;12.87;11.70;;;;;;;13.15;100.00;97140.19;4937249;28;20203;-65
2023/09/09 01:11:37;;;;;;;12.73;11.63;;;;;;;13.11;100.00;97141.59;4935809;28;20218;-62
2023/09/09 01:14:05;;;;;;;12.20;11.37;;;;;;;13.11;100.00;97151.44;4936773;28;20226;-65
2023/09/09 01:16:33;;;;;;;12.30;11.40;;;;;;;13.10;100.00;97147.16;4937480;28;21544;-62
2023/09/09 01:19:01;;;;;;;12.17;10.87;;;;;;;13.05;100.00;97155.72;4840558;28;21554;-62
2023/09/09 01:21:30;;;;;;;10.97;10.17;;;;;;;13.03;100.00;97153.25;4920431;28;20207;-59
2023/09/09 01:23:59;;;;;;;12.37;11.20;;;;;;;13.00;100.00;97153.66;4904751;28;22923;-64
2023/09/09 01:26:26;;;;;;;11.80;10.90;;;;;;;12.95;100.00;97145.44;4928339;28;20234;-62
2023/09/09 01:28:54;;;;;;;11.00;10.20;;;;;;;12.90;100.00;97142.56;4934643;28;20229;-63
2023/09/09 01:31:22;;;;;;;11.20;10.30;;;;;;;12.86;100.00;97144.00;4937301;28;20298;-62
2023/09/09 01:33:52;;;;;;;10.47;9.47;;;;;;;12.81;100.00;97133.94;4936709;28;20222;-65
2023/09/09 01:36:20;;;;;;;12.47;11.20;;;;;;;12.81;100.00;97149.09;4937756;28;20299;-59
2023/09/09 01:38:47;;;;;;;11.20;10.30;;;;;;;12.79;100.00;97137.84;4934577;28;20215;-66
2023/09/09 01:41:16;;;;;;;11.50;10.50;;;;;;;12.76;100.00;97140.91;4935577;28;20233;-64
2023/09/09 01:43:44;;;;;;;11.63;10.67;;;;;;;12.74;100.00;97141.09;4935860;28;20256;-65
2023/09/09 01:46:11;;;;;;;10.90;10.10;;;;;;;12.72;100.00;97146.63;4922740;28;20293;-59
2023/09/09 01:48:39;;;;;;;11.97;11.07;;;;;;;12.71;100.00;97144.16;4928940;28;20234;-60
2023/09/09 01:51:07;;;;;;;11.27;10.37;;;;;;;12.66;100.00;97150.03;4934870;28;20253;-59
2023/09/09 01:53:35;;;;;;;11.40;10.50;;;;;;;12.64;100.00;97144.09;4854086;28;20326;-62
2023/09/09 01:56:03;;;;;;;10.47;9.67;;;;;;;12.63;100.00;97145.13;4936733;28;20239;-58
2023/09/09 01:58:32;;;;;;;11.20;10.30;;;;;;;12.62;100.00;97142.69;4889079;28;20217;-58
2023/09/09 02:01:00;;;;;;;12.03;11.03;;;;;;;12.58;100.00;97148.41;4936612;28;20298;-63
2023/09/09 02:03:28;;;;;;;11.13;10.13;;;;;;;12.55;100.00;97151.44;4931529;28;20281;-56
2023/09/09 02:05:56;;;;;;;11.77;10.77;;;;;;;12.53;100.00;97150.00;4932363;28;20679;-65
2023/09/09 02:08:23;;;;;;;11.70;10.70;;;;;;;12.52;100.00;97143.03;4930685;28;20289;-60
2023/09/09 02:10:51;;;;;;;11.23;10.23;;;;;;;12.52;100.00;97151.84;4936342;28;20303;-60
2023/09/09 02:13:19;;;;;;;12.13;11.07;;;;;;;12.52;100.00;97145.69;4937433;28;20230;-63
2023/09/09 02:15:47;;;;;;;12.00;11.10;;;;;;;12.51;100.00;97141.41;4942081;28;20276;-60
2023/09/09 02:18:15;;;;;;;12.77;11.73;;;;;;;12.47;100.00;97154.25;4934912;28;20206;-62
2023/09/09 02:20:43;;;;;;;12.10;11.20;;;;;;;12.48;100.00;97144.47;4938663;28;20245;-61
2023/09/09 02:23:10;;;;;;;11.97;11.03;;;;;;;12.45;100.00;97146.50;4936820;28;20230;-61
2023/09/09 02:25:38;;;;;;;11.87;10.87;;;;;;;12.39;100.00;97141.97;4938410;28;20206;-61
2023/09/09 02:28:06;;;;;;;11.77;10.77;;;;;;;12.37;100.00;97144.00;4820266;28;20825;-58
2023/09/09 02:30:33;;;;;;;11.80;10.70;;;;;;;12.32;100.00;97143.78;4942461;28;20741;-64
2023/09/09 02:33:03;;;;;;;11.73;10.80;;;;;;;12.33;100.00;97144.59;4939069;28;20835;-63
2023/09/09 02:35:31;;;;;;;12.37;11.27;;;;;;;12.29;100.00;97144.97;4882841;28;20246;-65
2023/09/09 02:37:59;;;;;;;11.80;10.80;;;;;;;12.19;100.00;97135.72;4855877;28;20357;-62
2023/09/09 02:40:27;;;;;;;11.57;10.57;;;;;;;12.19;100.00;97144.50;4918169;28;20207;-60
2023/09/09 02:42:54;;;;;;;12.63;11.53;;;;;;;12.19;100.00;97146.34;4933280;28;20227;-63
2023/09/09 02:45:22;;;;;;;11.97;10.97;;;;;;;12.18;100.00;97144.69;4930145;28;20306;-65
2023/09/09 02:47:50;;;;;;;12.37;11.07;;;;;;;12.14;100.00;97137.13;4939057;28;20213;-63
2023/09/09 02:50:19;;;;;;;11.23;10.23;;;;;;;12.14;100.00;97150.41;4937897;28;20610;-62
2023/09/09 02:52:49;;;;;;;12.43;11.30;;;;;;;12.14;100.00;97149.59;4934457;28;20723;-61
2023/09/09 02:55:16;;;;;;;11.97;11.07;;;;;;;12.09;100.00;97142.19;4938184;28;20842;-59
2023/09/09 02:57:47;;;;;;;11.50;10.40;;;;;;;12.09;100.00;97147.50;4934752;28;20715;-58
2023/09/09 03:00:15;;;;;;;11.87;10.70;;;;;;;12.02;100.00;97155.44;4804290;28;20710;-59
2023/09/09 03:02:43;;;;;;;10.80;10.00;;;;;;;12.00;100.00;97141.53;4937485;28;20321;-64
2023/09/09 03:05:11;;;;;;;12.17;11.07;;;;;;;12.04;100.00;97141.13;4912191;28;20305;-63
2023/09/09 03:07:40;;;;;;;13.27;12.07;;;;;;;11.98;100.00;97142.72;4940106;28;20811;-63
2023/09/09 03:10:08;;;;;;;12.33;11.33;;;;;;;11.96;100.00;97142.09;4911965;28;20312;-63
2023/09/09 03:12:36;;;;;;;12.30;11.33;;;;;;;11.93;100.00;97145.94;4934727;28;20231;-59
2023/09/09 03:15:05;;;;;;;12.13;11.13;;;;;;;12.00;100.00;97143.34;4939718;28;20238;-63
2023/09/09 03:17:33;;;;;;;12.50;11.53;;;;;;;11.97;100.00;97141.88;4882092;28;20382;-65
2023/09/09 03:20:01;;;;;;;12.63;11.63;;;;;;;11.99;100.00;97144.34;4934867;28;20203;-63
2023/09/09 03:22:28;;;;;;;13.20;11.90;;;;;;;11.92;100.00;97141.66;4885721;28;20689;-60
2023/09/09 03:24:57;;;;;;;12.73;11.63;;;;;;;11.93;100.00;97143.28;4942519;28;20210;-62
2023/09/09 03:27:25;;;;;;;12.97;11.77;;;;;;;11.93;100.00;97147.75;4937140;28;20635;-62
2023/09/09 03:29:53;;;;;;;12.23;11.03;;;;;;;11.91;100.00;97144.47;4940180;28;20215;-61
2023/09/09 03:32:20;;;;;;;13.57;12.10;;;;;;;11.87;100.00;97147.53;4810259;28;20259;-66
2023/09/09 03:34:48;;;;;;;12.47;11.37;;;;;;;11.85;100.00;97148.75;4939688;28;20939;-57
2023/09/09 03:37:16;;;;;;;12.20;11.20;;;;;;;11.83;100.00;97148.13;4916636;28;21521;-62
2023/09/09 03:39:43;;;;;;;12.53;11.43;;;;;;;11.82;100.00;97146.47;4909547;28;20211;-62
2023/09/09 03:42:12;;;;;;;12.87;11.87;;;;;;;11.78;100.00;97140.72;4939368;28;20754;-65
2023/09/09 03:44:41;;;;;;;12.77;11.67;;;;;;;11.81;100.00;97155.47;4936890;28;20227;-63
2023/09/09 03:47:09;;;;;;;12.27;11.30;;;;;;;11.75;100.00;97145.63;4932200;28;20289;-63
2023/09/09 03:49:36;;;;;;;11.67;10.77;;;;;;;11.77;100.00;97154.22;4897953;28;20210;-60
2023/09/09 03:52:05;;;;;;;13.57;12.47;;;;;;;11.74;100.00;97147.44;4886343;28;21186;-67
2023/09/09 03:54:32;;;;;;;13.10;12.00;;;;;;;11.70;100.00;97143.53;4938318;28;20274;-59
2023/09/09 03:57:00;;;;;;;13.30;12.00;;;;;;;11.69;100.00;97152.50;4932980;28;20262;-63
2023/09/09 03:59:31;;;;;;;12.63;11.63;;;;;;;11.67;100.00;97147.38;4937329;28;20207;-59
2023/09/09 04:01:59;;;;;;;12.90;11.80;;;;;;;11.64;100.00;97146.94;4828984;28;20242;-65
2023/09/09 04:04:26;;;;;;;12.17;11.10;;;;;;;11.65;100.00;97151.25;4921079;28;20227;-65
2023/09/09 04:06:54;;;;;;;13.40;12.13;;;;;;;11.62;100.00;97156.94;4901600;28;20202;-64
2023/09/09 04:09:26;;;;;;;12.77;11.67;;;;;;;11.60;100.00;97158.97;4929979;28;20825;-64
2023/09/09 04:11:54;;;;;;;13.63;12.27;;;;;;;11.66;100.00;97158.19;4932364;28;20242;-63
2023/09/09 04:14:21;;;;;;;13.57;12.37;;;;;;;11.62;100.00;97160.41;4941550;28;20330;-63
2023/09/09 04:16:50;;;;;;;13.07;11.93;;;;;;;11.61;100.00;97157.94;4937744;28;20253;-64
2023/09/09 04:19:18;;;;;;;13.07;12.03;;;;;;;11.66;100.00;97164.31;4935044;28;20251;-59
2023/09/09 04:21:45;;;;;;;12.30;11.30;;;;;;;11.58;100.00;97153.84;4908735;28;20238;-63
2023/09/09 04:24:13;;;;;;;13.37;12.27;;;;;;;11.68;100.00;97169.44;4912992;28;20323;-65
2023/09/09 04:26:41;;;;;;;13.73;12.43;;;;;;;11.64;100.00;97171.66;4919710;28;20818;-64
2023/09/09 04:29:08;;;;;;;11.90;10.90;;;;;;;11.68;100.00;97166.78;4906634;28;20226;-61
2023/09/09 04:31:37;;;;;;;12.60;11.37;;;;;;;11.55;100.00;97144.44;4893212;28;20271;-63
2023/09/09 04:34:06;;;;;;;12.93;11.63;;;;;;;11.61;100.00;97163.25;4861751;28;20733;-62
2023/09/09 04:36:34;;;;;;;12.50;11.43;;;;;;;11.54;100.00;97163.19;4931591;28;20294;-64
2023/09/09 04:39:02;;;;;;;12.47;11.37;;;;;;;11.54;100.00;97166.66;4841487;28;20913;-60
2023/09/09 04:41:30;;;;;;;12.70;11.43;;;;;;;11.51;100.00;97166.22;4938163;28;20211;-63
2023/09/09 04:43:57;;;;;;;12.80;11.20;;;;;;;11.55;100.00;97176.28;4933489;28;20411;-66
2023/09/09 04:46:25;;;;;;;12.10;11.17;;;;;;;11.50;100.00;97170.69;4938096;28;20203;-65
2023/09/09 04:48:53;;;;;;;11.87;10.77;;;;;;;11.50;100.00;97169.91;4931742;28;20789;-63
2023/09/09 04:51:22;;;;;;;12.57;11.47;;;;;;;11.56;100.00;97171.78;4938518;28;20211;-62
2023/09/09 04:53:50;;;;;;;13.13;11.80;;;;;;;11.54;100.00;97171.97;4882279;28;20976;-61
2023/09/09 04:56:17;;;;;;;12.57;11.07;;;;;;;11.43;100.00;97172.47;4938590;28;20214;-61
2023/09/09 04:58:45;;;;;;;13.13;11.87;;;;;;;11.41;100.00;97177.97;4886628;28;20235;-62
2023/09/09 05:01:13;;;;;;;11.93;10.93;;;;;;;11.38;100.00;97174.88;4934803;28;20207;-65
2023/09/09 05:03:42;;;;;;;11.67;10.67;;;;;;;11.37;100.00;97171.41;4859841;28;20438;-64
2023/09/09 05:06:10;;;;;;;16.03;11.77;;;;;;;11.27;100.00;97171.72;4925285;28;20234;-62
2023/09/09 05:08:39;;;;;;;13.73;12.43;;;;;;;11.27;100.00;97174.38;4904210;28;20212;-68
2023/09/09 05:11:07;;;;;;;12.33;11.23;;;;;;;11.35;100.00;97176.06;4927990;28;20207;-61
2023/09/09 05:13:34;;;;;;;12.93;11.77;;;;;;;11.28;100.00;97178.66;4936917;28;20309;-66
2023/09/09 05:16:02;;;;;;;20.13;12.40;;;;;;;11.30;100.00;97175.81;4937422;28;20318;-60
2023/09/09 05:18:30;;;;;;;14.37;12.97;;;;;;;11.37;100.00;97182.03;4935171;28;21052;-64
2023/09/09 05:20:58;;;;;;;13.97;12.50;;;;;;;11.43;100.00;97183.09;4933649;28;20779;-55
2023/09/09 05:23:25;;;;;;;11.80;10.90;;;;;;;11.44;100.00;97179.41;4911663;28;20975;-68
2023/09/09 05:25:54;;;;;;;13.97;12.77;;;;;;;11.44;100.00;97179.41;4909518;28;20214;-59
2023/09/09 05:28:22;;;;;;;14.47;13.13;;;;;;;11.44;100.00;97182.06;4920239;28;20285;-65
2023/09/09 05:30:50;;;;;;;14.23;13.00;;;;;;;11.60;100.00;97186.31;4900218;28;20231;-67
2023/09/09 05:33:17;;;;;;;13.87;12.67;;;;;;;11.61;100.00;97182.63;4935904;28;20228;-62
2023/09/09 05:35:45;;;;;;;16.57;14.07;;;;;;;11.73;100.00;97194.38;4934661;28;20711;-62
2023/09/09 05:38:13;;;;;;;22.90;15.27;;;;;;;11.76;100.00;97190.53;4918682;28;20278;-64
2023/09/09 05:40:42;;;;;;;18.40;14.27;;;;;;;11.77;100.00;97186.06;4867168;28;20207;-61
2023/09/09 05:43:11;;;;;;;14.63;13.33;;;;;;;11.87;100.00;97192.66;4881512;28;21117;-59
2023/09/09 05:45:38;;;;;;;14.67;13.47;;;;;;;11.95;100.00;97197.00;4935004;28;20544;-67
2023/09/09 05:48:07;;;;;;;16.43;14.47;;;;;;;12.05;100.00;97199.38;4878499;28;20218;-62
2023/09/09 05:50:35;;;;;;;15.17;13.57;;;;;;;12.06;100.00;97198.34;4936630;28;20199;-63
2023/09/09 05:53:02;;;;;;;16.17;14.63;;;;;;;12.11;100.00;97198.59;4933308;28;20319;-65
2023/09/09 05:55:30;;;;;;;15.40;14.10;;;;;;;12.20;100.00;97203.75;4933901;28;20300;-61
2023/09/09 05:57:58;;;;;;;15.20;13.90;;;;;;;12.27;100.00;97205.44;4933843;28;20218;-63
2023/09/09 06:00:27;;;;;;;14.17;13.00;;;;;;;12.36;100.00;97199.97;4937443;28;20207;-66
2023/09/09 06:02:54;;;;;;;14.00;12.90;;;;;;;12.38;100.00;97200.59;4901464;28;20357;-64
2023/09/09 06:05:22;;;;;;;15.30;14.00;;;;;;;12.61;100.00;97202.19;4921276;28;20207;-60
2023/09/09 06:07:50;;;;;;;15.00;13.70;;;;;;;12.70;100.00;97196.50;4933763;28;20199;-63
2023/09/09 06:10:17;;;;;;;15.33;14.03;;;;;;;12.85;100.00;97199.00;4930876;28;20294;-61
2023/09/09 06:12:45;;;;;;;16.13;14.70;;;;;;;12.90;100.00;97184.31;4892983;28;20246;-64
2023/09/09 06:15:13;;;;;;;14.97;13.77;;;;;;;13.10;100.00;97190.50;4895346;28;20203;-60
2023/09/09 06:17:43;;;;;;;14.50;13.40;;;;;;;13.22;100.00;97195.25;4922953;28;20304;-63
2023/09/09 06:20:14;;;;;;;14.00;12.90;;;;;;;13.37;100.00;97193.25;4904668;28;20312;-63
2023/09/09 06:22:41;;;;;;;14.23;13.03;;;;;;;13.42;100.00;97197.94;4935956;28;20219;-64
2023/09/09 06:25:09;;;;;;;14.53;13.23;;;;;;;13.45;100.00;97198.41;4932995;28;20290;-62
2023/09/09 06:27:37;;;;;;;12.70;11.80;;;;;;;13.58;100.00;97189.63;4919014;28;20226;-65
2023/09/09 06:30:06;;;;;;;13.47;12.27;;;;;;;13.81;100.00;97199.03;4897987;28;20217;-60
2023/09/09 06:32:34;;;;;;;13.60;12.50;;;;;;;13.85;100.00;97202.97;4928392;28;20302;-65
2023/09/09 06:35:05;;;;;;;13.33;12.33;;;;;;;13.98;100.00;97204.78;4896417;28;20571;-63
2023/09/09 06:37:32;;;;;;;13.37;12.37;;;;;;;14.15;100.00;97202.53;4932124;28;20326;-63
2023/09/09 06:40:00;;;;;;;12.90;11.90;;;;;;;14.39;100.00;97199.41;4933081;28;20313;-63
2023/09/09 06:42:28;;;;;;;12.73;11.63;;;;;;;14.44;100.00;97195.13;4929072;28;20749;-66
2023/09/09 06:44:56;;;;;;;12.57;11.57;;;;;;;14.57;100.00;97190.75;4859512;28;20287;-60
2023/09/09 06:47:23;;;;;;;13.07;12.07;;;;;;;14.58;100.00;97195.06;4939869;28;20290;-62
2023/09/09 06:49:51;;;;;;;13.33;12.07;;;;;;;14.82;100.00;97196.28;4928757;28;20219;-60
2023/09/09 06:52:20;;;;;;;13.00;11.90;;;;;;;14.84;100.00;97196.06;4936009;28;20959;-67
2023/09/09 06:54:47;;;;;;;11.33;10.53;;;;;;;15.16;100.00;97196.97;4885872;28;20382;-61
2023/09/09 06:57:15;;;;;;;11.20;10.40;;;;;;;15.37;100.00;97191.50;4935924;28;20213;-64
2023/09/09 06:59:44;;;;;;;12.10;11.10;;;;;;;15.59;100.00;97200.78;4876319;28;20238;-67
2023/09/09 07:02:12;;;;;;;10.87;10.10;;;;;;;15.81;100.00;97194.28;4938294;28;20211;-56
2023/09/09 07:04:39;;;;;;;10.10;9.27;;;;;;;16.01;100.00;97197.66;4886905;28;20226;-62
2023/09/09 07:07:07;;;;;;;10.70;10.00;;;;;;;16.32;100.00;97195.94;4940154;28;20203;-61
2023/09/09 07:09:42;;;;;;;11.50;10.50;;;;;;;16.30;100.00;97194.50;4935201;28;20208;-62
2023/09/09 07:12:10;;;;;;;10.20;9.43;;;;;;;16.52;100.00;97189.56;4938003;28;20262;-64
2023/09/09 07:14:38;;;;;;;9.63;8.83;;;;;;;16.66;100.00;97200.94;4842379;28;20223;-60
2023/09/09 07:17:08;;;;;;;9.23;8.63;;;;;;;16.84;100.00;97193.94;4938179;28;20210;-58
2023/09/09 07:19:36;;;;;;;10.00;9.30;;;;;;;17.00;100.00;97197.88;4879065;28;20228;-63
2023/09/09 07:22:04;;;;;;;9.60;8.90;;;;;;;17.06;100.00;97200.50;4939957;28;20218;-62
2023/09/09 07:24:32;;;;;;;9.57;8.90;;;;;;;17.36;100.00;97191.66;4881574;28;20809;-59
2023/09/09 07:27:03;;;;;;;9.37;8.60;;;;;;;17.57;100.00;97196.72;4938213;28;20213;-60
2023/09/09 07:29:31;;;;;;;10.03;9.27;;;;;;;17.74;100.00;97195.00;4937029;28;20214;-62
2023/09/09 07:31:59;;;;;;;9.53;8.63;;;;;;;18.03;100.00;97194.41;4940469;28;20215;-64
2023/09/09 07:34:26;;;;;;;9.27;8.17;;;;;;;18.28;100.00;97196.03;4936144;28;20310;-62
2023/09/09 07:36:54;;;;;;;9.33;8.63;;;;;;;18.57;100.00;97190.78;4937042;28;20306;-61
2023/09/09 07:39:22;;;;;;;9.00;8.10;;;;;;;18.70;100.00;97190.50;4891138;28;20233;-59
2023/09/09 07:41:49;;;;;;;8.70;8.00;;;;;;;18.55;100.00;97188.31;4936381;28;20199;-64
2023/09/09 07:44:18;;;;;;;8.37;7.80;;;;;;;18.66;100.00;97179.44;4807523;28;22302;-64
2023/09/09 07:46:46;;;;;;;9.00;8.20;;;;;;;18.63;100.00;97181.78;4940537;28;20587;-59
2023/09/09 07:49:14;;;;;;;9.03;8.33;;;;;;;18.62;100.00;97189.03;4937869;28;20331;-62
2023/09/09 07:51:42;;;;;;;9.13;8.30;;;;;;;18.63;100.00;97182.59;4942593;28;20199;-66
2023/09/09 07:54:09;;;;;;;9.23;8.53;;;;;;;18.72;100.00;97190.28;4887334;28;20353;-63
2023/09/09 07:56:37;;;;;;;9.07;8.37;;;;;;;18.69;100.00;97182.72;4934848;28;20333;-63
2023/09/09 07:59:05;;;;;;;8.53;7.93;;;;;;;18.83;100.00;97191.31;4938588;28;20230;-68
2023/09/09 08:01:34;;;;;;;9.03;8.33;;;;;;;18.77;100.00;97196.59;4936690;28;20745;-64
2023/09/09 08:04:01;;;;;;;7.30;6.83;;;;;;;18.94;100.00;97187.78;4939492;28;20237;-67
2023/09/09 08:06:29;;;;;;;8.17;7.50;;;;;;;19.04;100.00;97188.00;4937198;28;20209;-61
2023/09/09 08:08:57;;;;;;;7.83;7.27;;;;;;;19.17;100.00;97186.91;4939869;28;20615;-62
2023/09/09 08:11:24;;;;;;;8.00;7.40;;;;;;;19.46;100.00;97186.91;4886477;28;20225;-62
2023/09/09 08:13:52;;;;;;;8.03;7.53;;;;;;;19.66;100.00;97182.94;4940864;28;20218;-64
2023/09/09 08:16:20;;;;;;;8.20;7.60;;;;;;;19.74;100.00;97184.41;4811289;28;20215;-63
2023/09/09 08:18:49;;;;;;;8.17;7.57;;;;;;;19.89;100.00;97190.06;4942717;28;20210;-64
2023/09/09 08:21:16;;;;;;;8.37;7.77;;;;;;;20.03;100.00;97187.06;4932448;28;21541;-60
2023/09/09 08:23:44;;;;;;;8.43;7.83;;;;;;;20.23;100.00;97186.56;4941479;28;20310;-63
2023/09/09 08:26:12;;;;;;;8.43;7.83;;;;;;;20.27;100.00;97181.50;4891948;28;20305;-64
2023/09/09 08:28:40;;;;;;;8.33;7.73;;;;;;;20.37;100.00;97181.66;4941748;28;20238;-63
2023/09/09 08:31:07;;;;;;;8.03;7.37;;;;;;;20.22;100.00;97183.06;4934380;28;20305;-63
2023/09/09 08:33:35;;;;;;;7.40;6.90;;;;;;;20.48;100.00;97183.44;4938752;28;20222;-66
2023/09/09 08:36:05;;;;;;;8.13;7.43;;;;;;;20.45;100.00;97183.09;4936680;28;20206;-58
2023/09/09 08:38:33;;;;;;;7.13;6.63;;;;;;;20.64;100.00;97186.31;4939425;28;20273;-61
2023/09/09 08:41:05;;;;;;;7.90;7.37;;;;;;;20.52;100.00;97187.25;4930923;28;20282;-63
2023/09/09 08:43:38;;;;;;;8.57;7.87;;;;;;;20.61;100.00;97189.50;4938922;28;20222;-66
2023/09/09 08:46:12;;;;;;;8.53;7.93;;;;;;;20.94;100.00;97194.00;4808862;28;20798;-63
2023/09/09 08:48:41;;;;;;;8.07;7.50;;;;;;;21.19;100.00;97192.66;4940191;28;20574;-61
2023/09/09 08:51:13;;;;;;;8.33;7.53;;;;;;;21.25;100.00;97188.97;4931002;28;20211;-67
2023/09/09 08:53:41;;;;;;;8.47;7.70;;;;;;;21.42;100.00;97200.72;4939881;28;20741;-59
2023/09/09 08:56:10;;;;;;;7.47;6.87;;;;;;;21.56;100.00;97196.56;4888191;28;20219;-63
2023/09/09 08:58:37;;;;;;;7.33;6.83;;;;;;;21.54;100.00;97198.69;4940100;28;20309;-63
2023/09/09 09:01:06;;;;;;;8.57;7.97;;;;;;;21.44;100.00;97198.59;4930712;28;20741;-63
2023/09/09 09:03:34;;;;;;;6.93;6.50;;;;;;;21.46;100.00;97196.47;4934761;28;20227;-66
2023/09/09 09:06:03;;;;;;;7.53;6.93;;;;;;;21.66;100.00;97203.97;4931176;28;20207;-65
2023/09/09 09:08:33;;;;;;;8.03;7.37;;;;;;;21.71;100.00;97192.38;4939377;28;20298;-60
2023/09/09 09:11:05;;;;;;;7.13;6.73;;;;;;;21.99;100.00;97196.69;4928621;28;20271;-63
2023/09/09 09:13:33;;;;;;;8.00;7.40;;;;;;;22.14;100.00;97200.56;4935703;28;20283;-61
2023/09/09 09:16:01;;;;;;;7.30;6.80;;;;;;;22.25;100.00;97194.16;4935119;28;20211;-59
2023/09/09 09:18:29;;;;;;;7.57;7.07;;;;;;;22.04;100.00;97188.63;4939592;28;20203;-63
2023/09/09 09:21:05;;;;;;;7.67;7.00;;;;;;;22.30;100.00;97188.00;4808166;28;20222;-63
2023/09/09 09:23:34;;;;;;;6.97;6.53;;;;;;;22.38;100.00;97185.63;4936702;28;20227;-63
2023/09/09 09:26:03;;;;;;;6.73;6.23;;;;;;;22.40;100.00;97180.78;4934662;28;20302;-66
2023/09/09 09:28:30;;;;;;;7.33;6.77;;;;;;;22.46;100.00;97175.44;4934534;28;20294;-61
2023/09/09 09:30:58;;;;;;;7.27;6.73;;;;;;;22.57;100.00;97181.72;4891323;28;20374;-67
2023/09/09 09:33:26;;;;;;;8.27;6.57;;;;;;;22.62;100.00;97179.84;4937571;28;20223;-60
2023/09/09 09:35:54;;;;;;;6.67;6.07;;;;;;;22.83;100.00;97185.34;4934629;28;20266;-62
2023/09/09 09:38:22;;;;;;;7.93;7.33;;;;;;;22.97;100.00;97185.69;4934293;28;20226;-63
2023/09/09 09:40:58;;;;;;;7.40;6.90;;;;;;;23.03;100.00;97176.50;4931822;28;20250;-64
2023/09/09 09:43:26;;;;;;;7.30;6.80;;;;;;;23.10;100.00;97168.13;4937149;28;20275;-63
2023/09/09 09:45:53;;;;;;;7.50;6.97;;;;;;;23.11;100.00;97167.09;4934310;28;20215;-64
2023/09/09 09:48:30;;;;;;;7.43;6.70;;;;;;;23.04;100.00;97180.84;4936095;28;20198;-64
2023/09/09 09:50:59;;;;;;;7.23;6.73;;;;;;;23.15;100.00;97173.59;4804073;28;20215;-61
2023/09/09 09:53:28;;;;;;;7.43;6.73;;;;;;;23.35;100.00;97166.63;4933422;28;20817;-63
2023/09/09 09:55:58;;;;;;;7.80;7.10;;;;;;;23.37;100.00;97168.00;4933968;28;20222;-66
2023/09/09 09:58:27;;;;;;;6.40;5.90;;;;;;;23.51;100.00;97170.16;4937304;28;21556;-62
2023/09/09 10:00:56;;;;;;;8.23;7.40;;;;;;;23.68;100.00;97167.19;4933868;28;20757;-63
2023/09/09 10:03:25;;;;;;;7.37;6.87;;;;;;;23.65;100.00;97171.25;4935144;28;20251;-61
2023/09/09 10:05:54;;;;;;;7.50;6.90;;;;;;;23.68;100.00;97167.19;4889882;28;20207;-64
2023/09/09 10:08:29;;;;;;;7.47;6.87;;;;;;;23.77;100.00;97170.19;4936827;28;20211;-65
2023/09/09 10:11:03;;;;;;;8.03;7.33;;;;;;;23.84;100.00;97163.41;4931134;28;20206;-62
2023/09/09 10:13:36;;;;;;;7.27;6.77;;;;;;;23.98;100.00;97160.97;4938966;28;20223;-63
2023/09/09 10:16:05;;;;;;;7.20;6.70;;;;;;;24.02;100.00;97160.47;4934037;28;20422;-65
2023/09/09 10:18:35;;;;;;;7.37;6.63;;;;;;;23.91;100.00;97155.03;4939172;28;20207;-63
2023/09/09 10:21:03;;;;;;;7.03;6.43;;;;;;;24.02;100.00;97161.28;4934336;28;20314;-62
2023/09/09 10:23:31;;;;;;;6.93;6.37;;;;;;;24.19;100.00;97157.47;4937693;28;20400;-63
2023/09/09 10:26:00;;;;;;;6.87;6.00;;;;;;;24.13;97.41;97156.69;4814955;28;20223;-63
2023/09/09 10:28:29;;;;;;;7.70;6.93;;;;;;;24.04;96.21;97150.16;4907864;28;21301;-64
2023/09/09 10:30:58;;;;;;;7.20;6.60;;;;;;;24.07;99.09;97158.56;4858436;28;20207;-62
2023/09/09 10:33:28;;;;;;;6.83;6.27;;;;;;;24.17;100.00;97149.63;4937132;28;20226;-65
2023/09/09 10:35:56;;;;;;;6.40;6.00;;;;;;;24.21;98.04;97150.69;4894894;28;20298;-66
2023/09/09 10:38:24;;;;;;;6.57;6.03;;;;;;;24.30;98.15;97148.25;4936316;28;20271;-62
2023/09/09 10:40:52;;;;;;;6.67;6.27;;;;;;;24.34;95.75;97143.91;4833570;28;20232;-65
2023/09/09 10:43:21;;;;;;;6.47;6.07;;;;;;;24.41;98.68;97144.44;4941734;28;20246;-62
2023/09/09 10:45:51;;;;;;;6.30;5.90;;;;;;;24.53;97.64;97136.00;4936614;28;20286;-64
2023/09/09 10:48:21;;;;;;;6.70;6.30;;;;;;;24.64;96.21;97139.50;4939424;28;20222;-63
2023/09/09 10:50:50;;;;;;;6.60;6.00;;;;;;;24.77;96.41;97135.38;4880694;28;20829;-60
2023/09/09 10:53:22;;;;;;;6.77;5.97;;;;;;;24.83;89.30;97136.19;4940874;28;20659;-64
2023/09/09 10:55:52;;;;;;;5.93;5.53;;;;;;;24.76;85.93;97128.34;4888287;28;20702;-63
2023/09/09 10:58:30;;;;;;;6.47;5.90;;;;;;;24.75;88.77;97113.19;4939392;28;20294;-60
2023/09/09 11:00:59;;;;;;;6.13;5.73;;;;;;;24.88;91.77;97124.53;4833246;28;20663;-65
2023/09/09 11:03:29;;;;;;;6.20;5.80;;;;;;;24.86;92.61;97124.78;4904732;28;20246;-61
2023/09/09 11:05:57;;;;;;;6.30;5.90;;;;;;;24.89;98.41;97123.44;4922028;28;20211;-64
2023/09/09 11:08:29;;;;;;;6.27;5.77;;;;;;;24.99;94.06;97126.88;4922575;28;20282;-65
2023/09/09 11:11:08;;;;;;;6.40;5.90;;;;;;;25.15;96.90;97122.19;4920172;28;20223;-60
2023/09/09 11:13:42;;;;;;;6.30;5.80;;;;;;;25.15;95.29;97126.81;4903855;28;20365;-65
2023/09/09 11:16:28;;;;;;;6.93;6.33;;;;;;;25.21;93.38;97125.69;4940181;28;20214;-62
2023/09/09 11:18:56;;;;;;;6.67;6.23;;;;;;;25.23;90.71;97122.69;4875578;28;20229;-57
2023/09/09 11:21:24;;;;;;;6.40;5.90;;;;;;;25.21;87.67;97133.81;4939096;28;20279;-61